Time;durP1;ratioP1;P1;durP2;ratioP2;P2;SDS_P1;SDS_P2;PMS_P1;PMS_P2;Temp;Humidity;BMP_temperature;BMP_pressure;BME280_temperature;BME280_humidity;BME280_pressure;Samples;Min_cycle;Max_cycle;Signal;HPM_P1;HPM_P2
2022/03/08 00:00:48;;;;;;;;;;;;;;;-1.80;58.42;100598.88;12187683;19;19929;-84
2022/03/08 00:04:50;;;;;;;;;;;;;;;-1.83;58.96;100594.63;12221143;19;19910;-84
2022/03/08 00:08:51;;;;;;;;;;;;;;;-1.85;58.73;100595.75;12211754;19;20346;-83
2022/03/08 00:12:55;;;;;;;;;;;;;;;-1.85;59.02;100596.59;12191519;19;20027;-85
2022/03/08 00:16:57;;;;;;;;;;;;;;;-1.88;59.06;100588.81;12210163;19;20328;-82
2022/03/08 00:21:03;;;;;;;;;;;;;;;-1.92;59.59;100590.13;12209792;19;19974;-83
2022/03/08 00:25:05;;;;;;;;;;;;;;;-1.94;59.33;100585.84;12195666;19;19926;-84
2022/03/08 00:29:09;;;;;;;;;;;;;;;-1.98;59.64;100589.88;12215495;19;19911;-82
2022/03/08 00:33:12;;;;;;;;;;;;;;;-2.04;59.69;100579.66;12209695;19;20344;-83
2022/03/08 00:37:14;;;;;;;;;;;;;;;-2.12;59.84;100578.53;12190201;19;20273;-84
2022/03/08 00:41:20;;;;;;;;;;;;;;;-2.12;59.85;100575.00;12213717;19;19964;-83
2022/03/08 00:45:22;;;;;;;;;;;;;;;-2.15;60.15;100567.19;12211518;19;19914;-83
2022/03/08 00:49:26;;;;;;;;;;;;;;;-2.20;60.90;100555.97;12191817;19;19936;-84
2022/03/08 00:53:33;;;;;;;;;;;;;;;-2.20;60.41;100553.28;12204280;19;19919;-83
2022/03/08 00:57:36;;;;;;;;;;;;;;;-2.20;60.48;100550.59;12184653;19;20193;-82
2022/03/08 01:01:38;;;;;;;;;;;;;;;-2.16;60.44;100543.91;12206195;19;19930;-83
2022/03/08 01:05:39;;;;;;;;;;;;;;;-2.14;60.80;100539.19;12204317;19;19911;-83
2022/03/08 01:09:41;;;;;;;;;;;;;;;-2.06;60.06;100536.59;12176749;19;19978;-83
2022/03/08 01:13:43;;;;;;;;;;;;;;;-2.07;59.58;100533.03;12202544;19;19999;-83
2022/03/08 01:17:45;;;;;;;;;;;;;;;-2.11;60.49;100525.41;12212088;19;19982;-83
2022/03/08 01:21:46;;;;;;;;;;;;;;;-2.19;60.04;100526.16;12183766;19;19987;-83
2022/03/08 01:25:48;;;;;;;;;;;;;;;-2.34;60.53;100515.00;12208700;19;19918;-82
2022/03/08 01:29:51;;;;;;;;;;;;;;;-2.42;61.38;100519.44;12211041;19;20306;-84
2022/03/08 01:33:55;;;;;;;;;;;;;;;-2.50;62.36;100517.47;12188154;19;19928;-82
2022/03/08 01:37:57;;;;;;;;;;;;;;;-2.54;62.05;100513.38;12202599;19;19939;-84
2022/03/08 01:41:59;;;;;;;;;;;;;;;-2.55;62.46;100511.69;12199493;19;20348;-82
2022/03/08 01:46:01;;;;;;;;;;;;;;;-2.55;62.33;100506.28;12170271;19;19903;-82
2022/03/08 01:50:04;;;;;;;;;;;;;;;-2.59;62.42;100494.06;12211295;19;20418;-82
2022/03/08 01:54:06;;;;;;;;;;;;;;;-2.64;62.78;100491.00;12199783;19;19911;-84
2022/03/08 01:58:07;;;;;;;;;;;;;;;-2.70;63.42;100495.13;12176684;19;19985;-82
2022/03/08 02:02:09;;;;;;;;;;;;;;;-2.75;63.72;100498.25;12205539;19;19976;-84
2022/03/08 02:06:11;;;;;;;;;;;;;;;-2.78;63.63;100503.09;12203260;19;20261;-83
2022/03/08 02:10:13;;;;;;;;;;;;;;;-2.81;63.67;100496.16;12183894;19;20369;-82
2022/03/08 02:14:18;;;;;;;;;;;;;;;-2.86;64.12;100487.63;12205020;19;19974;-82
2022/03/08 02:18:20;;;;;;;;;;;;;;;-2.90;63.77;100494.34;12228536;19;19917;-84
2022/03/08 02:22:23;;;;;;;;;;;;;;;-2.96;64.62;100496.78;12204784;19;19936;-87
2022/03/08 02:26:26;;;;;;;;;;;;;;;-3.01;64.88;100510.66;12203026;19;19919;-82
2022/03/08 02:30:28;;;;;;;;;;;;;;;-3.03;64.89;100491.97;12198214;19;19923;-82
2022/03/08 02:34:29;;;;;;;;;;;;;;;-3.05;66.12;100495.78;12182761;19;19922;-82
2022/03/08 02:38:31;;;;;;;;;;;;;;;-3.08;65.75;100496.09;12203006;19;19982;-85
2022/03/08 02:42:32;;;;;;;;;;;;;;;-3.13;65.87;100499.19;12189650;19;19914;-85
2022/03/08 02:46:34;;;;;;;;;;;;;;;-3.15;65.51;100482.34;12202905;19;19907;-83
2022/03/08 02:50:36;;;;;;;;;;;;;;;-3.22;66.29;100490.13;12209485;19;19942;-83
2022/03/08 02:54:37;;;;;;;;;;;;;;;-3.23;66.52;100490.28;12208287;19;19914;-89
2022/03/08 02:58:39;;;;;;;;;;;;;;;-3.22;66.37;100478.50;12244936;19;19914;-83
2022/03/08 03:02:40;;;;;;;;;;;;;;;-3.24;66.32;100475.13;12234390;19;19907;-83
2022/03/08 03:06:43;;;;;;;;;;;;;;;-3.25;66.72;100468.84;12184523;19;19915;-82
2022/03/08 03:10:45;;;;;;;;;;;;;;;-3.24;66.63;100470.59;12211913;19;19998;-84
2022/03/08 03:14:46;;;;;;;;;;;;;;;-3.22;67.03;100476.66;12204384;19;20400;-82
2022/03/08 03:18:48;;;;;;;;;;;;;;;-3.22;66.69;100468.56;12191954;19;19967;-83
2022/03/08 03:22:50;;;;;;;;;;;;;;;-3.23;67.24;100453.41;12211397;19;19915;-82
2022/03/08 03:26:51;;;;;;;;;;;;;;;-3.22;67.45;100454.25;12209862;19;19906;-82
2022/03/08 03:30:53;;;;;;;;;;;;;;;-3.22;67.29;100463.19;12196967;19;20031;-84
2022/03/08 03:34:54;;;;;;;;;;;;;;;-3.20;67.57;100454.97;12208192;19;20365;-83
2022/03/08 03:38:56;;;;;;;;;;;;;;;-3.21;67.31;100443.34;12213646;19;20002;-85
2022/03/08 03:42:57;;;;;;;;;;;;;;;-3.24;67.61;100446.31;12194880;19;20416;-84
2022/03/08 03:46:59;;;;;;;;;;;;;;;-3.26;67.46;100442.06;12221600;19;19919;-82
2022/03/08 03:51:01;;;;;;;;;;;;;;;-3.28;67.92;100439.50;12223144;19;19911;-83
2022/03/08 03:55:02;;;;;;;;;;;;;;;-3.26;67.78;100448.31;12190709;19;19920;-81
2022/03/08 03:59:04;;;;;;;;;;;;;;;-3.26;68.02;100440.22;12209299;19;19966;-83
2022/03/08 04:03:05;;;;;;;;;;;;;;;-3.26;67.88;100436.69;12206580;19;19933;-82
2022/03/08 04:07:07;;;;;;;;;;;;;;;-3.27;68.63;100435.84;12182929;19;20332;-84
2022/03/08 04:11:09;;;;;;;;;;;;;;;-3.26;68.56;100442.06;12216193;19;19956;-84
2022/03/08 04:15:11;;;;;;;;;;;;;;;-3.29;68.49;100435.13;12217622;19;20326;-86
2022/03/08 04:19:12;;;;;;;;;;;;;;;-3.30;68.74;100438.81;12187539;19;19910;-84
2022/03/08 04:23:14;;;;;;;;;;;;;;;-3.28;69.01;100441.34;12216014;19;19921;-83
2022/03/08 04:27:16;;;;;;;;;;;;;;;-3.24;68.40;100437.38;12228743;19;19922;-84
2022/03/08 04:31:18;;;;;;;;;;;;;;;-3.20;68.21;100444.19;12240399;19;19922;-84
2022/03/08 04:35:20;;;;;;;;;;;;;;;-3.19;68.29;100432.38;12257885;19;19982;-84
2022/03/08 04:39:23;;;;;;;;;;;;;;;-3.14;68.02;100429.28;12262639;19;19925;-83
2022/03/08 04:43:24;;;;;;;;;;;;;;;-3.12;67.91;100421.88;12238952;19;19922;-84
2022/03/08 04:47:26;;;;;;;;;;;;;;;-3.11;67.83;100421.72;12214182;19;19919;-84
2022/03/08 04:51:30;;;;;;;;;;;;;;;-3.10;68.09;100423.41;12212242;19;19922;-84
2022/03/08 04:55:32;;;;;;;;;;;;;;;-3.08;68.92;100428.69;12185091;19;20687;-82
2022/03/08 04:59:38;;;;;;;;;;;;;;;-3.04;68.15;100424.69;12209629;19;19918;-84
2022/03/08 05:03:40;;;;;;;;;;;;;;;-3.06;68.33;100427.53;12187346;19;19914;-82
2022/03/08 05:07:42;;;;;;;;;;;;;;;-3.07;68.19;100416.88;12208254;19;20420;-81
2022/03/08 05:11:44;;;;;;;;;;;;;;;-3.11;68.21;100416.34;12208451;19;19915;-83
2022/03/08 05:15:48;;;;;;;;;;;;;;;-3.07;68.57;100415.03;12183568;19;19918;-83
2022/03/08 05:19:50;;;;;;;;;;;;;;;-3.08;68.42;100413.34;12200367;19;19990;-80
2022/03/08 05:23:52;;;;;;;;;;;;;;;-3.11;68.33;100407.41;12208863;19;20346;-82
2022/03/08 05:27:53;;;;;;;;;;;;;;;-3.17;68.97;100414.22;12185730;19;19911;-83
2022/03/08 05:31:55;;;;;;;;;;;;;;;-3.26;69.28;100410.56;12204131;19;20390;-83
2022/03/08 05:35:57;;;;;;;;;;;;;;;-3.33;69.24;100401.38;12207479;19;19938;-83
2022/03/08 05:39:59;;;;;;;;;;;;;;;-3.36;69.95;100398.09;12184415;19;19915;-84
2022/03/08 05:44:00;;;;;;;;;;;;;;;-3.44;70.71;100409.63;12199717;19;19932;-83
2022/03/08 05:48:02;;;;;;;;;;;;;;;-3.49;70.30;100401.97;12201962;19;20360;-82
2022/03/08 05:52:04;;;;;;;;;;;;;;;-3.54;71.35;100417.72;12184522;19;19986;-83
2022/03/08 05:56:06;;;;;;;;;;;;;;;-3.51;71.00;100417.44;12200287;19;19911;-82
2022/03/08 06:00:08;;;;;;;;;;;;;;;-3.51;71.21;100428.22;12198855;19;19939;-82
2022/03/08 06:04:13;;;;;;;;;;;;;;;-3.51;71.92;100438.13;12180951;19;19907;-81
2022/03/08 06:08:16;;;;;;;;;;;;;;;-3.47;71.59;100432.31;12197660;19;19921;-82
2022/03/08 06:12:20;;;;;;;;;;;;;;;-3.46;72.38;100436.69;12210822;19;20248;-82
2022/03/08 06:16:22;;;;;;;;;;;;;;;-3.41;73.05;100444.38;12175232;19;19932;-82
2022/03/08 06:20:26;;;;;;;;;;;;;;;-3.38;73.83;100449.47;12206307;19;20261;-81
2022/03/08 06:24:33;;;;;;;;;;;;;;;-3.34;73.33;100440.09;12189840;19;19914;-80
2022/03/08 06:28:34;;;;;;;;;;;;;;;-3.25;73.28;100443.75;12208977;19;19932;-80
2022/03/08 06:32:36;;;;;;;;;;;;;;;-3.16;72.48;100447.44;12199718;19;19974;-81
2022/03/08 06:36:41;;;;;;;;;;;;;;;-3.05;72.18;100450.81;12166308;19;19928;-79
2022/03/08 06:40:43;;;;;;;;;;;;;;;-2.92;71.16;100450.47;12199187;19;19967;-80
2022/03/08 06:44:45;;;;;;;;;;;;;;;-2.79;71.18;100460.94;12207046;19;19978;-79
2022/03/08 06:48:47;;;;;;;;;;;;;;;-2.63;70.34;100458.44;12208072;19;20376;-80
2022/03/08 06:52:50;;;;;;;;;;;;;;;-2.47;69.33;100460.50;12213881;19;19918;-80
2022/03/08 06:56:51;;;;;;;;;;;;;;;-2.30;68.98;100465.09;12210356;19;19922;-79
2022/03/08 07:00:53;;;;;;;;;;;;;;;-2.17;68.20;100464.75;12197396;19;19912;-80
2022/03/08 07:04:55;;;;;;;;;;;;;;;-2.04;68.44;100477.03;12202829;19;19919;-80
2022/03/08 07:08:57;;;;;;;;;;;;;;;-1.92;67.56;100471.25;12206855;19;19943;-77
2022/03/08 07:13:00;;;;;;;;;;;;;;;-1.86;67.59;100475.22;12189318;19;19911;-79
2022/03/08 07:17:01;;;;;;;;;;;;;;;-1.75;67.61;100477.69;12172381;19;19922;-79
2022/03/08 07:21:04;;;;;;;;;;;;;;;-1.68;67.56;100473.34;12200250;19;19915;-78
2022/03/08 07:25:08;;;;;;;;;;;;;;;-1.57;67.46;100466.03;12182986;19;20492;-78
2022/03/08 07:29:10;;;;;;;;;;;;;;;-1.41;67.70;100468.88;12204579;19;19946;-78
2022/03/08 07:33:11;;;;;;;;;;;;;;;-1.23;66.97;100466.97;12207065;19;20266;-79
2022/03/08 07:37:14;;;;;;;;;;;;;;;-0.99;66.21;100471.72;12175411;19;19919;-78
2022/03/08 07:41:19;;;;;;;;;;;;;;;-0.81;65.94;100465.41;12199956;19;19942;-78
2022/03/08 07:45:22;;;;;;;;;;;;;;;-0.59;65.19;100475.69;12204977;19;19934;-78
2022/03/08 07:49:25;;;;;;;;;;;;;;;-0.31;64.79;100478.16;12187777;19;19995;-78
2022/03/08 07:53:29;;;;;;;;;;;;;;;-0.04;63.22;100475.22;12204995;19;19942;-79
2022/03/08 07:57:32;;;;;;;;;;;;;;;0.38;62.68;100470.72;12197020;19;19922;-77
2022/03/08 08:01:56;;;;;;;;;;;;;;;0.71;61.54;100458.03;12214633;19;19915;-78
2022/03/08 08:05:58;;;;;;;;;;;;;;;0.98;60.13;100461.41;12227572;19;19921;-77
2022/03/08 08:10:00;;;;;;;;;;;;;;;1.25;59.26;100454.72;12183711;19;19911;-77
2022/03/08 08:14:01;;;;;;;;;;;;;;;1.46;57.76;100459.59;12206799;19;19917;-77
2022/03/08 08:18:03;;;;;;;;;;;;;;;1.74;57.61;100460.00;12195619;19;20407;-78
2022/03/08 08:22:05;;;;;;;;;;;;;;;1.88;55.61;100458.41;12179715;19;20184;-79
2022/03/08 08:26:08;;;;;;;;;;;;;;;2.19;55.89;100461.13;12197273;19;19915;-78
2022/03/08 08:30:11;;;;;;;;;;;;;;;2.55;56.39;100464.09;12203310;19;19934;-77
2022/03/08 08:34:12;;;;;;;;;;;;;;;2.85;55.63;100469.63;12185150;19;20584;-77
2022/03/08 08:38:14;;;;;;;;;;;;;;;2.93;53.30;100461.41;12206529;19;19929;-77
2022/03/08 08:42:18;;;;;;;;;;;;;;;3.32;54.12;100457.59;12195135;19;19919;-78
2022/03/08 08:46:21;;;;;;;;;;;;;;;3.53;52.64;100468.59;12185717;19;19921;-78
2022/03/08 08:50:23;;;;;;;;;;;;;;;3.82;52.68;100470.47;12205501;19;20325;-79
2022/03/08 08:54:25;;;;;;;;;;;;;;;3.96;52.50;100468.78;12205507;19;20329;-77
2022/03/08 08:58:27;;;;;;;;;;;;;;;4.05;51.99;100466.78;12178019;19;19914;-77
2022/03/08 09:02:32;;;;;;;;;;;;;;;4.27;51.43;100464.94;12205018;19;19915;-78
2022/03/08 09:06:34;;;;;;;;;;;;;;;4.51;51.70;100456.38;12182265;19;20290;-79
2022/03/08 09:10:35;;;;;;;;;;;;;;;4.73;50.93;100459.97;12205548;19;19925;-78
2022/03/08 09:14:38;;;;;;;;;;;;;;;4.89;50.15;100450.63;12210331;19;19922;-78
2022/03/08 09:18:43;;;;;;;;;;;;;;;5.02;50.17;100442.53;12188548;19;19918;-78
2022/03/08 09:22:45;;;;;;;;;;;;;;;5.16;49.57;100438.03;12205245;19;19919;-78
2022/03/08 09:26:47;;;;;;;;;;;;;;;5.27;49.22;100442.09;12199094;19;19911;-77
2022/03/08 09:30:49;;;;;;;;;;;;;;;5.40;48.80;100439.44;12178816;19;19919;-77
2022/03/08 09:34:51;;;;;;;;;;;;;;;5.54;48.20;100434.91;12207524;19;19971;-77
2022/03/08 09:38:52;;;;;;;;;;;;;;;5.64;48.13;100434.53;12197034;19;19972;-78
2022/03/08 09:42:54;;;;;;;;;;;;;;;6.08;48.52;100414.13;12178125;19;19922;-77
2022/03/08 09:46:56;;;;;;;;;;;;;;;6.36;47.27;100406.59;12198804;19;20022;-78
2022/03/08 09:50:59;;;;;;;;;;;;;;;6.50;47.39;100410.22;12197450;19;19914;-77
2022/03/08 09:55:03;;;;;;;;;;;;;;;6.77;46.27;100408.34;12185310;19;19971;-77
2022/03/08 09:59:05;;;;;;;;;;;;;;;6.97;45.32;100399.28;12199148;19;19939;-77
2022/03/08 10:03:12;;;;;;;;;;;;;;;7.27;44.26;100402.41;12202482;19;20275;-77
2022/03/08 10:07:17;;;;;;;;;;;;;;;7.45;43.28;100404.47;12180611;19;19918;-78
2022/03/08 10:11:19;;;;;;;;;;;;;;;7.49;41.48;100405.72;12209912;19;19903;-78
2022/03/08 10:15:21;;;;;;;;;;;;;;;7.61;41.96;100394.94;12204780;19;19974;-81
2022/03/08 10:19:23;;;;;;;;;;;;;;;7.64;40.09;100386.28;12188673;19;19928;-79
2022/03/08 10:23:25;;;;;;;;;;;;;;;7.85;40.75;100385.13;12213296;19;19911;-80
2022/03/08 10:27:31;;;;;;;;;;;;;;;7.85;39.85;100376.91;12230739;19;19911;-81
2022/03/08 10:31:32;;;;;;;;;;;;;;;8.08;40.82;100382.69;12213339;19;19911;-80
2022/03/08 10:35:38;;;;;;;;;;;;;;;8.18;39.27;100383.06;12225114;19;19923;-81
2022/03/08 10:39:47;;;;;;;;;;;;;;;8.34;39.75;100361.63;12204545;19;19910;-80
2022/03/08 10:43:49;;;;;;;;;;;;;;;8.35;38.92;100357.81;12230973;19;19910;-79
2022/03/08 10:47:52;;;;;;;;;;;;;;;8.61;39.19;100365.06;12234987;19;19915;-79
2022/03/08 10:52:03;;;;;;;;;;;;;;;8.65;38.70;100355.28;12206366;19;19908;-79
2022/03/08 10:56:07;;;;;;;;;;;;;;;8.73;38.13;100344.03;12221396;19;19945;-80
2022/03/08 11:00:14;;;;;;;;;;;;;;;8.69;36.95;100341.97;12214244;19;19915;-81
2022/03/08 11:04:20;;;;;;;;;;;;;;;8.87;37.12;100337.34;12190317;19;19915;-81
2022/03/08 11:08:27;;;;;;;;;;;;;;;8.72;35.00;100338.78;12215441;19;20256;-80
2022/03/08 11:12:29;;;;;;;;;;;;;;;8.87;35.77;100337.34;12218567;19;19927;-81
2022/03/08 11:16:32;;;;;;;;;;;;;;;9.00;35.21;100330.03;12190419;19;19927;-82
2022/03/08 11:20:34;;;;;;;;;;;;;;;9.11;34.87;100321.88;12212084;19;19939;-82
2022/03/08 11:24:36;;;;;;;;;;;;;;;9.21;34.99;100320.50;12191909;19;19947;-80
2022/03/08 11:28:40;;;;;;;;;;;;;;;9.20;34.97;100316.09;12214551;19;19918;-80
2022/03/08 11:32:55;;;;;;;;;;;;;;;9.38;35.65;100318.84;12208623;19;19919;-79
2022/03/08 11:37:01;;;;;;;;;;;;;;;9.58;34.08;100311.19;12184883;19;20371;-81
2022/03/08 11:41:03;;;;;;;;;;;;;;;9.87;34.48;100308.66;12209514;19;19919;-81
2022/03/08 11:45:09;;;;;;;;;;;;;;;9.86;34.06;100312.50;12200285;19;22413;-80
2022/03/08 11:49:37;;;;;;;;;;;;;;;10.02;33.65;100300.84;12192149;19;19911;-80
2022/03/08 11:53:44;;;;;;;;;;;;;;;10.33;32.85;100292.59;12210003;19;19915;-81
2022/03/08 11:57:54;;;;;;;;;;;;;;;10.80;33.56;100300.91;12189720;19;20036;-79
2022/03/08 12:01:55;;;;;;;;;;;;;;;11.21;32.07;100302.66;12210142;19;19935;-78
2022/03/08 12:06:04;;;;;;;;;;;;;;;11.71;31.18;100301.22;12201418;19;19935;-81
2022/03/08 12:10:26;;;;;;;;;;;;;;;12.22;31.76;100285.66;12185042;19;19994;-81
2022/03/08 12:14:45;;;;;;;;;;;;;;;12.60;30.46;100295.97;12209240;19;19959;-81
2022/03/08 12:18:49;;;;;;;;;;;;;;;12.96;30.36;100289.06;12171972;19;19911;-81
2022/03/08 12:23:06;;;;;;;;;;;;;;;12.99;30.15;100290.50;12207626;19;19915;-81
2022/03/08 12:27:12;;;;;;;;;;;;;;;13.20;29.93;100280.53;12213468;19;19922;-81
2022/03/08 12:32:06;;;;;;;;;;;;;;;13.56;29.34;100270.78;12190633;19;19915;-82
2022/03/08 12:36:26;;;;;;;;;;;;;;;14.00;28.46;100273.50;12205919;19;19915;-82
2022/03/08 12:40:35;;;;;;;;;;;;;;;14.41;28.11;100260.03;12183591;19;20395;-82
2022/03/08 12:44:51;;;;;;;;;;;;;;;14.16;27.15;100252.34;12199850;19;19923;-82
2022/03/08 12:48:55;;;;;;;;;;;;;;;14.92;28.01;100257.69;12188406;19;19965;-78
2022/03/08 12:53:02;;;;;;;;;;;;;;;15.28;26.75;100255.09;12196724;19;19936;-78
2022/03/08 12:57:04;;;;;;;;;;;;;;;14.97;25.95;100246.63;12195707;19;19990;-80
2022/03/08 13:01:07;;;;;;;;;;;;;;;15.56;26.59;100250.25;12186659;19;19974;-79
2022/03/08 13:05:10;;;;;;;;;;;;;;;15.56;26.25;100245.50;12196514;19;19990;-79
2022/03/08 13:09:12;;;;;;;;;;;;;;;15.72;25.85;100238.09;12206590;19;19915;-81
2022/03/08 13:13:14;;;;;;;;;;;;;;;16.53;26.74;100236.50;12180931;19;19992;-79
2022/03/08 13:17:28;;;;;;;;;;;;;;;15.97;24.86;100240.06;12207073;19;19922;-80
2022/03/08 13:21:32;;;;;;;;;;;;;;;15.78;25.31;100239.78;12188127;19;19922;-80
2022/03/08 13:25:34;;;;;;;;;;;;;;;14.68;25.98;100234.22;12186398;19;19915;-79
2022/03/08 13:29:37;;;;;;;;;;;;;;;13.79;26.59;100235.63;12211144;19;19910;-78
2022/03/08 13:33:42;;;;;;;;;;;;;;;13.31;27.58;100234.50;12180790;19;20340;-79
2022/03/08 13:37:44;;;;;;;;;;;;;;;12.85;27.62;100233.84;12205006;19;19935;-79
2022/03/08 13:41:46;;;;;;;;;;;;;;;12.51;27.93;100233.91;12199472;19;19907;-81
2022/03/08 13:45:48;;;;;;;;;;;;;;;13.11;27.64;100227.59;12193611;19;20364;-80
2022/03/08 13:49:58;;;;;;;;;;;;;;;13.79;26.94;100224.53;12229842;19;19971;-78
2022/03/08 13:54:00;;;;;;;;;;;;;;;13.25;26.74;100236.38;12223629;19;19919;-79
2022/03/08 13:58:04;;;;;;;;;;;;;;;12.57;26.56;100238.41;12181942;19;19920;-79
2022/03/08 14:02:12;;;;;;;;;;;;;;;11.90;27.51;100238.38;12196847;19;19907;-78
2022/03/08 14:06:16;;;;;;;;;;;;;;;11.63;27.95;100234.28;12195539;19;20591;-80
2022/03/08 14:10:24;;;;;;;;;;;;;;;11.28;28.48;100234.41;12182358;19;19927;-78
2022/03/08 14:14:30;;;;;;;;;;;;;;;11.17;28.79;100229.75;12197847;19;20009;-78
2022/03/08 14:18:47;;;;;;;;;;;;;;;11.07;28.94;100226.78;12171032;19;21283;-78
2022/03/08 14:23:02;;;;;;;;;;;;;;;10.82;28.65;100233.41;12191273;19;19966;-78
2022/03/08 14:27:08;;;;;;;;;;;;;;;10.85;28.40;100232.09;12191123;19;19998;-77
2022/03/08 14:31:16;;;;;;;;;;;;;;;10.62;28.62;100224.66;12182985;19;19922;-78
2022/03/08 14:35:19;;;;;;;;;;;;;;;10.60;29.17;100240.63;12184166;19;19926;-78
2022/03/08 14:39:44;;;;;;;;;;;;;;;10.61;29.29;100234.84;12206396;19;20356;-78
2022/03/08 14:43:46;;;;;;;;;;;;;;;10.60;29.12;100229.59;12159980;19;19911;-78
2022/03/08 14:47:48;;;;;;;;;;;;;;;10.62;29.32;100227.41;12204304;19;20330;-78
2022/03/08 14:51:50;;;;;;;;;;;;;;;10.87;29.42;100232.69;12177060;19;19911;-79
2022/03/08 14:55:52;;;;;;;;;;;;;;;11.13;29.14;100231.34;12197398;19;19926;-78
2022/03/08 14:59:54;;;;;;;;;;;;;;;11.03;29.00;100233.84;12202810;19;19911;-78
2022/03/08 15:03:56;;;;;;;;;;;;;;;11.46;29.11;100238.06;12178790;19;19998;-78
2022/03/08 15:07:57;;;;;;;;;;;;;;;12.01;28.35;100240.25;12215490;19;19950;-78
2022/03/08 15:11:59;;;;;;;;;;;;;;;12.77;27.83;100238.72;12207328;19;20348;-79
2022/03/08 15:16:01;;;;;;;;;;;;;;;13.22;27.10;100232.16;12191593;19;19934;-79
2022/03/08 15:20:03;;;;;;;;;;;;;;;13.43;26.10;100227.75;12212364;19;19915;-79
2022/03/08 15:24:05;;;;;;;;;;;;;;;13.73;26.72;100212.56;12207119;19;19903;-79
2022/03/08 15:28:07;;;;;;;;;;;;;;;13.83;26.54;100215.47;12195526;19;21224;-78
2022/03/08 15:32:09;;;;;;;;;;;;;;;13.77;26.77;100207.34;12215715;19;19919;-80
2022/03/08 15:36:12;;;;;;;;;;;;;;;13.37;27.17;100208.56;12222258;19;19911;-79
2022/03/08 15:40:14;;;;;;;;;;;;;;;12.59;27.29;100197.56;12199111;19;20011;-80
2022/03/08 15:44:15;;;;;;;;;;;;;;;12.21;27.98;100196.41;12218385;19;19921;-79
2022/03/08 15:48:23;;;;;;;;;;;;;;;11.85;28.07;100209.59;12213435;19;19910;-78
2022/03/08 15:52:31;;;;;;;;;;;;;;;11.57;28.63;100204.06;12182238;19;19911;-80
2022/03/08 15:56:33;;;;;;;;;;;;;;;11.26;28.97;100203.47;12203585;19;20320;-78
2022/03/08 16:00:37;;;;;;;;;;;;;;;11.00;29.43;100207.59;12191456;19;19961;-77
2022/03/08 16:04:39;;;;;;;;;;;;;;;10.72;29.69;100211.97;12213171;19;19938;-78
2022/03/08 16:08:41;;;;;;;;;;;;;;;10.34;30.03;100206.94;12212987;19;20580;-79
2022/03/08 16:12:43;;;;;;;;;;;;;;;10.19;30.06;100192.75;12184438;19;20549;-78
2022/03/08 16:16:46;;;;;;;;;;;;;;;10.00;30.34;100192.88;12206714;19;20364;-78
2022/03/08 16:20:48;;;;;;;;;;;;;;;9.83;30.47;100191.88;12196857;19;20328;-77
2022/03/08 16:24:54;;;;;;;;;;;;;;;9.75;30.68;100189.44;12187108;19;19918;-78
2022/03/08 16:28:56;;;;;;;;;;;;;;;9.59;30.66;100197.31;12207078;19;19914;-78
2022/03/08 16:32:58;;;;;;;;;;;;;;;9.44;31.10;100196.06;12198242;19;19962;-78
2022/03/08 16:37:00;;;;;;;;;;;;;;;9.38;31.13;100206.06;12179122;19;19914;-78
2022/03/08 16:41:01;;;;;;;;;;;;;;;9.23;31.58;100208.41;12206567;19;19974;-79
2022/03/08 16:45:04;;;;;;;;;;;;;;;9.05;32.11;100196.34;12200024;19;19918;-77
2022/03/08 16:49:08;;;;;;;;;;;;;;;8.98;32.35;100201.06;12183099;19;19926;-78
2022/03/08 16:53:10;;;;;;;;;;;;;;;9.02;32.50;100201.47;12204154;19;19931;-78
2022/03/08 16:57:12;;;;;;;;;;;;;;;8.85;32.95;100203.97;12200320;19;19930;-78
2022/03/08 17:01:14;;;;;;;;;;;;;;;8.66;33.20;100203.97;12178782;19;19914;-78
2022/03/08 17:05:23;;;;;;;;;;;;;;;8.63;33.34;100209.94;12203904;19;19921;-78
2022/03/08 17:09:25;;;;;;;;;;;;;;;8.49;32.97;100208.38;12200389;19;19947;-79
2022/03/08 17:13:29;;;;;;;;;;;;;;;8.24;33.63;100211.13;12177791;19;19921;-78
2022/03/08 17:17:35;;;;;;;;;;;;;;;7.89;33.89;100216.28;12190676;19;19907;-78
2022/03/08 17:21:38;;;;;;;;;;;;;;;7.57;34.29;100232.72;12182534;19;19919;-77
2022/03/08 17:25:42;;;;;;;;;;;;;;;7.28;34.37;100240.44;12203964;19;19914;-77
2022/03/08 17:29:44;;;;;;;;;;;;;;;7.01;34.67;100249.84;12203555;19;19928;-80
2022/03/08 17:33:45;;;;;;;;;;;;;;;6.76;35.07;100258.75;12177180;19;19927;-81
2022/03/08 17:37:47;;;;;;;;;;;;;;;6.53;35.47;100263.84;12194126;19;19911;-78
2022/03/08 17:41:49;;;;;;;;;;;;;;;6.31;36.56;100271.47;12186990;19;19990;-77
2022/03/08 17:45:51;;;;;;;;;;;;;;;6.15;36.77;100267.22;12162277;19;19921;-78
2022/03/08 17:49:53;;;;;;;;;;;;;;;6.01;37.19;100271.88;12189990;19;20161;-78
2022/03/08 17:53:58;;;;;;;;;;;;;;;5.84;37.28;100286.94;12192102;19;20379;-78
2022/03/08 17:58:03;;;;;;;;;;;;;;;5.67;37.29;100286.47;12170947;19;20447;-78
2022/03/08 18:02:05;;;;;;;;;;;;;;;5.54;37.44;100297.38;12189204;19;19982;-78
2022/03/08 18:06:13;;;;;;;;;;;;;;;5.41;37.27;100299.03;12187881;19;20881;-79
2022/03/08 18:10:22;;;;;;;;;;;;;;;5.31;37.41;100293.09;12164838;19;19939;-78
2022/03/08 18:14:24;;;;;;;;;;;;;;;5.23;37.93;100299.59;12201144;19;19909;-78
2022/03/08 18:18:28;;;;;;;;;;;;;;;5.13;38.17;100301.81;12173975;19;19938;-80
2022/03/08 18:22:30;;;;;;;;;;;;;;;5.03;38.36;100302.22;12156376;19;19914;-78
2022/03/08 18:26:31;;;;;;;;;;;;;;;4.94;38.50;100305.31;12174241;19;19913;-79
2022/03/08 18:30:34;;;;;;;;;;;;;;;4.85;38.88;100310.09;12175163;19;20373;-80
2022/03/08 18:34:37;;;;;;;;;;;;;;;4.76;39.22;100300.38;12182965;19;20364;-79
2022/03/08 18:38:40;;;;;;;;;;;;;;;4.64;39.52;100296.47;12183974;19;19932;-79
2022/03/08 18:42:42;;;;;;;;;;;;;;;4.47;39.71;100302.25;12173068;19;19910;-79
2022/03/08 18:46:44;;;;;;;;;;;;;;;4.38;39.92;100308.06;12195950;19;19907;-78
2022/03/08 18:50:45;;;;;;;;;;;;;;;4.30;39.93;100300.84;12199164;19;19915;-80
2022/03/08 18:54:47;;;;;;;;;;;;;;;4.24;39.90;100302.47;12178236;19;19970;-79
2022/03/08 18:58:49;;;;;;;;;;;;;;;4.20;40.32;100306.66;12189692;19;19911;-80
2022/03/08 19:02:50;;;;;;;;;;;;;;;4.14;40.33;100312.88;12202879;19;19966;-79
2022/03/08 19:06:52;;;;;;;;;;;;;;;4.06;40.60;100313.84;12177041;19;20892;-79
2022/03/08 19:10:54;;;;;;;;;;;;;;;4.00;40.47;100317.34;12213566;19;19970;-79
2022/03/08 19:14:55;;;;;;;;;;;;;;;3.94;40.51;100322.75;12199874;19;19970;-79
2022/03/08 19:18:57;;;;;;;;;;;;;;;3.85;40.38;100320.16;12183806;19;20802;-80
2022/03/08 19:23:02;;;;;;;;;;;;;;;3.77;40.57;100322.16;12208387;19;19915;-80
2022/03/08 19:27:03;;;;;;;;;;;;;;;3.72;41.02;100330.91;12207902;19;19945;-80
2022/03/08 19:31:09;;;;;;;;;;;;;;;3.68;41.48;100320.59;12187863;19;19915;-80
2022/03/08 19:35:11;;;;;;;;;;;;;;;3.61;41.46;100334.97;12206832;19;19914;-79
2022/03/08 19:39:13;;;;;;;;;;;;;;;3.53;41.87;100332.34;12209490;19;20327;-80
2022/03/08 19:43:34;;;;;;;;;;;;;;;3.44;42.10;100328.06;12179446;19;19915;-79
2022/03/08 19:47:37;;;;;;;;;;;;;;;3.34;41.90;100333.81;12203970;19;20343;-79
2022/03/08 19:51:39;;;;;;;;;;;;;;;3.26;42.14;100333.91;12190072;19;19930;-79
2022/03/08 19:55:41;;;;;;;;;;;;;;;3.20;42.33;100326.50;12203124;19;19990;-79
2022/03/08 19:59:43;;;;;;;;;;;;;;;3.10;42.68;100326.78;12206592;19;19929;-79
2022/03/08 20:03:44;;;;;;;;;;;;;;;3.00;43.04;100326.22;12171506;19;19990;-79
2022/03/08 20:07:46;;;;;;;;;;;;;;;2.92;43.34;100326.34;12191076;19;20514;-79
2022/03/08 20:11:48;;;;;;;;;;;;;;;2.87;43.26;100323.31;12208863;19;20292;-79
2022/03/08 20:15:51;;;;;;;;;;;;;;;2.90;42.52;100325.66;12178230;19;19931;-79
2022/03/08 20:19:52;;;;;;;;;;;;;;;2.93;42.21;100336.19;12204863;19;19978;-79
2022/03/08 20:23:55;;;;;;;;;;;;;;;2.96;42.49;100335.81;12200670;19;19943;-79
2022/03/08 20:28:23;;;;;;;;;;;;;;;2.97;42.36;100334.75;12151926;19;19947;-79
2022/03/08 20:32:25;;;;;;;;;;;;;;;2.94;43.09;100338.72;12201222;19;19915;-79
2022/03/08 20:36:28;;;;;;;;;;;;;;;2.92;42.56;100343.50;12203193;19;19910;-79
2022/03/08 20:40:30;;;;;;;;;;;;;;;2.94;43.26;100337.84;12181122;19;20626;-79